sensor_id;sensor_type;location;lat;lon;timestamp;temperature;humidity
47576;DHT22;33304;52.456;13.328;2023-06-19T00:00:30;18.80;27.70
47576;DHT22;33304;52.456;13.328;2023-06-19T00:02:59;18.70;28.10
47576;DHT22;33304;52.456;13.328;2023-06-19T00:05:26;18.80;28.20
47576;DHT22;33304;52.456;13.328;2023-06-19T00:07:53;18.70;28.10
47576;DHT22;33304;52.456;13.328;2023-06-19T00:10:20;18.70;28.10
47576;DHT22;33304;52.456;13.328;2023-06-19T00:12:47;18.70;28.10
47576;DHT22;33304;52.456;13.328;2023-06-19T00:15:15;18.80;28.20
47576;DHT22;33304;52.456;13.328;2023-06-19T00:17:42;18.60;28.00
47576;DHT22;33304;52.456;13.328;2023-06-19T00:20:10;18.60;28.00
47576;DHT22;33304;52.456;13.328;2023-06-19T00:22:39;18.60;28.00
47576;DHT22;33304;52.456;13.328;2023-06-19T00:25:07;18.50;28.00
47576;DHT22;33304;52.456;13.328;2023-06-19T00:27:34;18.50;28.00
47576;DHT22;33304;52.456;13.328;2023-06-19T00:30:01;18.50;28.50
47576;DHT22;33304;52.456;13.328;2023-06-19T00:32:29;18.60;28.10
47576;DHT22;33304;52.456;13.328;2023-06-19T00:34:56;18.60;28.00
47576;DHT22;33304;52.456;13.328;2023-06-19T00:37:26;18.60;28.00
47576;DHT22;33304;52.456;13.328;2023-06-19T00:39:59;18.50;28.00
47576;DHT22;33304;52.456;13.328;2023-06-19T00:42:26;18.60;28.00
47576;DHT22;33304;52.456;13.328;2023-06-19T00:44:53;18.50;28.20
47576;DHT22;33304;52.456;13.328;2023-06-19T00:47:21;18.60;28.00
47576;DHT22;33304;52.456;13.328;2023-06-19T00:49:48;18.60;28.10
47576;DHT22;33304;52.456;13.328;2023-06-19T00:52:16;18.60;28.00
47576;DHT22;33304;52.456;13.328;2023-06-19T00:54:45;18.60;28.00
47576;DHT22;33304;52.456;13.328;2023-06-19T00:57:12;18.60;28.10
47576;DHT22;33304;52.456;13.328;2023-06-19T00:59:40;18.60;28.00
47576;DHT22;33304;52.456;13.328;2023-06-19T01:02:07;18.50;27.90
47576;DHT22;33304;52.456;13.328;2023-06-19T01:04:34;18.50;27.90
47576;DHT22;33304;52.456;13.328;2023-06-19T01:07:07;18.50;27.90
47576;DHT22;33304;52.456;13.328;2023-06-19T01:09:40;18.40;28.30
47576;DHT22;33304;52.456;13.328;2023-06-19T01:12:15;18.40;28.10
47576;DHT22;33304;52.456;13.328;2023-06-19T01:14:50;18.40;28.00
47576;DHT22;33304;52.456;13.328;2023-06-19T01:17:18;18.40;27.90
47576;DHT22;33304;52.456;13.328;2023-06-19T01:19:47;18.40;27.90
47576;DHT22;33304;52.456;13.328;2023-06-19T01:22:24;18.40;27.90
47576;DHT22;33304;52.456;13.328;2023-06-19T01:24:51;18.30;27.80
47576;DHT22;33304;52.456;13.328;2023-06-19T01:27:18;18.30;27.80
47576;DHT22;33304;52.456;13.328;2023-06-19T01:29:46;18.30;28.40
47576;DHT22;33304;52.456;13.328;2023-06-19T01:32:17;18.30;28.10
47576;DHT22;33304;52.456;13.328;2023-06-19T01:34:46;18.20;28.40
47576;DHT22;33304;52.456;13.328;2023-06-19T01:37:14;18.30;28.50
47576;DHT22;33304;52.456;13.328;2023-06-19T01:39:45;18.30;28.40
47576;DHT22;33304;52.456;13.328;2023-06-19T01:42:13;18.40;28.50
47576;DHT22;33304;52.456;13.328;2023-06-19T01:44:41;18.30;28.20
47576;DHT22;33304;52.456;13.328;2023-06-19T01:47:09;18.30;28.50
47576;DHT22;33304;52.456;13.328;2023-06-19T01:49:37;18.30;28.70
47576;DHT22;33304;52.456;13.328;2023-06-19T01:52:05;18.30;28.70
47576;DHT22;33304;52.456;13.328;2023-06-19T01:54:32;18.30;28.40
47576;DHT22;33304;52.456;13.328;2023-06-19T01:57:01;18.30;28.80
47576;DHT22;33304;52.456;13.328;2023-06-19T01:59:30;18.30;28.60
47576;DHT22;33304;52.456;13.328;2023-06-19T02:01:57;18.30;28.70
47576;DHT22;33304;52.456;13.328;2023-06-19T02:04:24;18.40;28.40
47576;DHT22;33304;52.456;13.328;2023-06-19T02:06:51;18.40;28.30
47576;DHT22;33304;52.456;13.328;2023-06-19T02:09:19;18.40;28.40
47576;DHT22;33304;52.456;13.328;2023-06-19T02:11:46;18.30;28.80
47576;DHT22;33304;52.456;13.328;2023-06-19T02:14:14;18.30;29.00
47576;DHT22;33304;52.456;13.328;2023-06-19T02:16:42;18.30;29.10
47576;DHT22;33304;52.456;13.328;2023-06-19T02:19:10;18.20;29.30
47576;DHT22;33304;52.456;13.328;2023-06-19T02:21:38;18.10;29.80
47576;DHT22;33304;52.456;13.328;2023-06-19T02:24:05;18.10;29.70
47576;DHT22;33304;52.456;13.328;2023-06-19T02:26:33;18.10;29.70
47576;DHT22;33304;52.456;13.328;2023-06-19T02:29:00;18.10;29.70
47576;DHT22;33304;52.456;13.328;2023-06-19T02:31:29;18.10;29.90
47576;DHT22;33304;52.456;13.328;2023-06-19T02:33:57;18.20;29.70
47576;DHT22;33304;52.456;13.328;2023-06-19T02:36:24;18.20;29.80
47576;DHT22;33304;52.456;13.328;2023-06-19T02:38:51;18.10;30.00
47576;DHT22;33304;52.456;13.328;2023-06-19T02:41:18;18.10;30.00
47576;DHT22;33304;52.456;13.328;2023-06-19T02:43:46;18.10;30.20
47576;DHT22;33304;52.456;13.328;2023-06-19T02:46:14;18.10;30.00
47576;DHT22;33304;52.456;13.328;2023-06-19T02:48:42;18.10;30.00
47576;DHT22;33304;52.456;13.328;2023-06-19T02:51:10;18.10;30.30
47576;DHT22;33304;52.456;13.328;2023-06-19T02:53:37;18.10;30.10
47576;DHT22;33304;52.456;13.328;2023-06-19T02:56:04;18.10;30.10
47576;DHT22;33304;52.456;13.328;2023-06-19T02:58:31;18.10;30.10
47576;DHT22;33304;52.456;13.328;2023-06-19T03:00:58;18.00;30.10
47576;DHT22;33304;52.456;13.328;2023-06-19T03:03:25;18.00;30.20
47576;DHT22;33304;52.456;13.328;2023-06-19T03:05:54;18.00;30.40
47576;DHT22;33304;52.456;13.328;2023-06-19T03:08:21;17.90;30.10
47576;DHT22;33304;52.456;13.328;2023-06-19T03:10:48;17.90;30.20
47576;DHT22;33304;52.456;13.328;2023-06-19T03:13:15;17.90;30.30
47576;DHT22;33304;52.456;13.328;2023-06-19T03:15:42;18.00;30.10
47576;DHT22;33304;52.456;13.328;2023-06-19T03:18:09;18.00;30.20
47576;DHT22;33304;52.456;13.328;2023-06-19T03:20:38;17.90;30.00
47576;DHT22;33304;52.456;13.328;2023-06-19T03:23:07;17.90;30.20
47576;DHT22;33304;52.456;13.328;2023-06-19T03:25:35;17.90;30.40
47576;DHT22;33304;52.456;13.328;2023-06-19T03:28:03;17.90;30.40
47576;DHT22;33304;52.456;13.328;2023-06-19T03:30:31;17.80;30.30
47576;DHT22;33304;52.456;13.328;2023-06-19T03:32:58;17.80;30.30
47576;DHT22;33304;52.456;13.328;2023-06-19T03:35:41;17.80;30.40
47576;DHT22;33304;52.456;13.328;2023-06-19T03:38:12;17.90;30.00
47576;DHT22;33304;52.456;13.328;2023-06-19T03:40:40;17.90;30.00
47576;DHT22;33304;52.456;13.328;2023-06-19T03:43:11;18.00;29.70
47576;DHT22;33304;52.456;13.328;2023-06-19T03:45:39;18.00;29.70
47576;DHT22;33304;52.456;13.328;2023-06-19T03:48:06;18.10;29.50
47576;DHT22;33304;52.456;13.328;2023-06-19T03:50:34;18.20;29.20
47576;DHT22;33304;52.456;13.328;2023-06-19T03:53:01;18.20;29.00
47576;DHT22;33304;52.456;13.328;2023-06-19T03:55:29;18.20;29.00
47576;DHT22;33304;52.456;13.328;2023-06-19T03:57:56;18.40;27.90
47576;DHT22;33304;52.456;13.328;2023-06-19T04:00:23;18.40;27.90
47576;DHT22;33304;52.456;13.328;2023-06-19T04:02:51;18.40;27.90
47576;DHT22;33304;52.456;13.328;2023-06-19T04:05:19;18.40;27.90
47576;DHT22;33304;52.456;13.328;2023-06-19T04:07:46;18.40;27.90
47576;DHT22;33304;52.456;13.328;2023-06-19T04:10:14;18.30;27.80
47576;DHT22;33304;52.456;13.328;2023-06-19T04:12:43;18.30;28.10
47576;DHT22;33304;52.456;13.328;2023-06-19T04:15:11;18.50;27.90
47576;DHT22;33304;52.456;13.328;2023-06-19T04:17:38;18.50;27.90
47576;DHT22;33304;52.456;13.328;2023-06-19T04:20:06;18.70;28.10
47576;DHT22;33304;52.456;13.328;2023-06-19T04:22:37;18.80;28.20
47576;DHT22;33304;52.456;13.328;2023-06-19T04:25:06;18.80;28.20
47576;DHT22;33304;52.456;13.328;2023-06-19T04:27:33;18.90;27.40
47576;DHT22;33304;52.456;13.328;2023-06-19T04:30:03;19.00;27.10
47576;DHT22;33304;52.456;13.328;2023-06-19T04:32:32;18.90;27.10
47576;DHT22;33304;52.456;13.328;2023-06-19T04:35:00;19.00;26.20
47576;DHT22;33304;52.456;13.328;2023-06-19T04:37:27;19.10;26.20
47576;DHT22;33304;52.456;13.328;2023-06-19T04:39:54;19.10;26.10
47576;DHT22;33304;52.456;13.328;2023-06-19T04:42:22;19.10;26.00
47576;DHT22;33304;52.456;13.328;2023-06-19T04:44:49;19.10;26.20
47576;DHT22;33304;52.456;13.328;2023-06-19T04:47:19;19.20;25.90
47576;DHT22;33304;52.456;13.328;2023-06-19T04:49:46;19.10;25.80
47576;DHT22;33304;52.456;13.328;2023-06-19T04:52:13;19.00;26.00
47576;DHT22;33304;52.456;13.328;2023-06-19T04:54:41;19.20;25.80
47576;DHT22;33304;52.456;13.328;2023-06-19T04:57:08;19.20;25.60
47576;DHT22;33304;52.456;13.328;2023-06-19T04:59:35;19.20;25.80
47576;DHT22;33304;52.456;13.328;2023-06-19T05:02:02;19.00;26.10
47576;DHT22;33304;52.456;13.328;2023-06-19T05:04:31;19.00;26.40
47576;DHT22;33304;52.456;13.328;2023-06-19T05:06:58;19.00;26.20
47576;DHT22;33304;52.456;13.328;2023-06-19T05:09:26;18.90;26.10
47576;DHT22;33304;52.456;13.328;2023-06-19T05:11:53;18.90;26.90
47576;DHT22;33304;52.456;13.328;2023-06-19T05:14:20;18.90;26.80
47576;DHT22;33304;52.456;13.328;2023-06-19T05:16:47;19.00;27.10
47576;DHT22;33304;52.456;13.328;2023-06-19T05:19:14;19.00;26.50
47576;DHT22;33304;52.456;13.328;2023-06-19T05:21:42;19.10;26.10
47576;DHT22;33304;52.456;13.328;2023-06-19T05:24:09;19.10;26.30
47576;DHT22;33304;52.456;13.328;2023-06-19T05:26:36;19.10;26.10
47576;DHT22;33304;52.456;13.328;2023-06-19T05:29:03;19.10;27.10
47576;DHT22;33304;52.456;13.328;2023-06-19T05:31:34;19.00;26.90
47576;DHT22;33304;52.456;13.328;2023-06-19T05:34:01;19.00;26.40
47576;DHT22;33304;52.456;13.328;2023-06-19T05:36:29;19.10;26.40
47576;DHT22;33304;52.456;13.328;2023-06-19T05:38:57;19.20;26.80
47576;DHT22;33304;52.456;13.328;2023-06-19T05:41:24;19.10;26.30
47576;DHT22;33304;52.456;13.328;2023-06-19T05:43:51;19.20;25.80
47576;DHT22;33304;52.456;13.328;2023-06-19T05:46:18;19.30;26.10
47576;DHT22;33304;52.456;13.328;2023-06-19T05:48:46;19.40;25.70
47576;DHT22;33304;52.456;13.328;2023-06-19T05:51:14;19.40;25.70
47576;DHT22;33304;52.456;13.328;2023-06-19T05:53:41;19.60;25.90
47576;DHT22;33304;52.456;13.328;2023-06-19T05:56:09;19.50;25.40
47576;DHT22;33304;52.456;13.328;2023-06-19T05:58:36;19.70;25.30
47576;DHT22;33304;52.456;13.328;2023-06-19T06:01:04;19.90;24.70
47576;DHT22;33304;52.456;13.328;2023-06-19T06:03:32;20.00;24.70
47576;DHT22;33304;52.456;13.328;2023-06-19T06:05:59;20.10;24.70
47576;DHT22;33304;52.456;13.328;2023-06-19T06:08:29;20.10;24.60
47576;DHT22;33304;52.456;13.328;2023-06-19T06:10:56;20.10;24.30
47576;DHT22;33304;52.456;13.328;2023-06-19T06:13:25;20.10;24.60
47576;DHT22;33304;52.456;13.328;2023-06-19T06:15:52;20.10;24.60
47576;DHT22;33304;52.456;13.328;2023-06-19T06:18:19;20.10;24.60
47576;DHT22;33304;52.456;13.328;2023-06-19T06:20:46;20.20;25.20
47576;DHT22;33304;52.456;13.328;2023-06-19T06:23:13;20.00;24.60
47576;DHT22;33304;52.456;13.328;2023-06-19T06:25:41;20.10;24.70
47576;DHT22;33304;52.456;13.328;2023-06-19T06:28:08;20.10;25.30
47576;DHT22;33304;52.456;13.328;2023-06-19T06:30:36;20.10;24.50
47576;DHT22;33304;52.456;13.328;2023-06-19T06:33:04;20.20;24.40
47576;DHT22;33304;52.456;13.328;2023-06-19T06:35:31;20.30;24.10
47576;DHT22;33304;52.456;13.328;2023-06-19T06:38:00;20.40;23.50
47576;DHT22;33304;52.456;13.328;2023-06-19T06:40:27;20.40;23.50
47576;DHT22;33304;52.456;13.328;2023-06-19T06:42:54;20.50;23.30
47576;DHT22;33304;52.456;13.328;2023-06-19T06:45:21;20.50;23.60
47576;DHT22;33304;52.456;13.328;2023-06-19T06:47:49;20.30;23.60
47576;DHT22;33304;52.456;13.328;2023-06-19T06:50:17;20.50;23.30
47576;DHT22;33304;52.456;13.328;2023-06-19T06:52:44;20.60;22.60
47576;DHT22;33304;52.456;13.328;2023-06-19T06:55:11;20.70;23.40
47576;DHT22;33304;52.456;13.328;2023-06-19T06:57:39;20.60;22.90
47576;DHT22;33304;52.456;13.328;2023-06-19T07:00:07;20.70;22.90
47576;DHT22;33304;52.456;13.328;2023-06-19T07:02:37;20.80;22.40
47576;DHT22;33304;52.456;13.328;2023-06-19T07:05:07;20.90;22.40
47576;DHT22;33304;52.456;13.328;2023-06-19T07:07:34;20.90;22.60
47576;DHT22;33304;52.456;13.328;2023-06-19T07:10:01;20.90;22.20
47576;DHT22;33304;52.456;13.328;2023-06-19T07:12:28;21.00;22.00
47576;DHT22;33304;52.456;13.328;2023-06-19T07:14:55;20.90;22.30
47576;DHT22;33304;52.456;13.328;2023-06-19T07:17:22;21.10;22.30
47576;DHT22;33304;52.456;13.328;2023-06-19T07:19:49;21.20;22.00
47576;DHT22;33304;52.456;13.328;2023-06-19T07:22:18;21.30;21.90
47576;DHT22;33304;52.456;13.328;2023-06-19T07:24:45;21.40;21.40
47576;DHT22;33304;52.456;13.328;2023-06-19T07:27:12;21.40;22.00
47576;DHT22;33304;52.456;13.328;2023-06-19T07:29:39;21.50;20.40
47576;DHT22;33304;52.456;13.328;2023-06-19T07:32:09;21.70;21.40
47576;DHT22;33304;52.456;13.328;2023-06-19T07:34:37;21.60;20.50
47576;DHT22;33304;52.456;13.328;2023-06-19T07:37:04;21.80;20.60
47576;DHT22;33304;52.456;13.328;2023-06-19T07:39:33;21.80;20.60
47576;DHT22;33304;52.456;13.328;2023-06-19T07:42:00;21.90;20.70
47576;DHT22;33304;52.456;13.328;2023-06-19T07:44:27;22.00;20.70
47576;DHT22;33304;52.456;13.328;2023-06-19T07:46:54;22.00;20.00
47576;DHT22;33304;52.456;13.328;2023-06-19T07:49:21;21.90;20.00
47576;DHT22;33304;52.456;13.328;2023-06-19T07:51:48;22.00;20.00
47576;DHT22;33304;52.456;13.328;2023-06-19T07:54:15;22.20;20.90
47576;DHT22;33304;52.456;13.328;2023-06-19T07:56:43;22.20;20.00
47576;DHT22;33304;52.456;13.328;2023-06-19T07:59:10;22.40;19.60
47576;DHT22;33304;52.456;13.328;2023-06-19T08:01:37;22.60;19.30
47576;DHT22;33304;52.456;13.328;2023-06-19T08:04:04;22.90;18.10
47576;DHT22;33304;52.456;13.328;2023-06-19T08:06:31;22.90;17.00
47576;DHT22;33304;52.456;13.328;2023-06-19T08:08:59;22.90;16.70
47576;DHT22;33304;52.456;13.328;2023-06-19T08:11:26;23.00;17.20
47576;DHT22;33304;52.456;13.328;2023-06-19T08:13:54;22.80;17.00
47576;DHT22;33304;52.456;13.328;2023-06-19T08:16:21;22.80;17.20
47576;DHT22;33304;52.456;13.328;2023-06-19T08:18:48;22.80;17.30
47576;DHT22;33304;52.456;13.328;2023-06-19T08:21:15;22.90;17.60
47576;DHT22;33304;52.456;13.328;2023-06-19T08:23:42;22.90;17.20
47576;DHT22;33304;52.456;13.328;2023-06-19T08:26:10;22.80;18.00
47576;DHT22;33304;52.456;13.328;2023-06-19T08:28:37;23.10;17.30
47576;DHT22;33304;52.456;13.328;2023-06-19T08:31:07;23.10;16.60
47576;DHT22;33304;52.456;13.328;2023-06-19T08:33:34;23.30;16.30
47576;DHT22;33304;52.456;13.328;2023-06-19T08:36:02;23.10;16.80
47576;DHT22;33304;52.456;13.328;2023-06-19T08:38:29;23.20;16.00
47576;DHT22;33304;52.456;13.328;2023-06-19T08:40:56;23.20;17.40
47576;DHT22;33304;52.456;13.328;2023-06-19T08:43:23;23.30;16.50
47576;DHT22;33304;52.456;13.328;2023-06-19T08:46:03;23.60;16.10
47576;DHT22;33304;52.456;13.328;2023-06-19T08:48:36;23.60;15.80
47576;DHT22;33304;52.456;13.328;2023-06-19T08:51:03;23.70;15.90
47576;DHT22;33304;52.456;13.328;2023-06-19T08:53:33;23.80;16.40
47576;DHT22;33304;52.456;13.328;2023-06-19T08:56:01;23.90;16.10
47576;DHT22;33304;52.456;13.328;2023-06-19T08:58:29;23.90;16.60
47576;DHT22;33304;52.456;13.328;2023-06-19T09:00:58;24.10;15.50
47576;DHT22;33304;52.456;13.328;2023-06-19T09:03:25;24.10;15.30
47576;DHT22;33304;52.456;13.328;2023-06-19T09:05:54;23.90;15.60
47576;DHT22;33304;52.456;13.328;2023-06-19T09:08:22;23.60;16.30
47576;DHT22;33304;52.456;13.328;2023-06-19T09:10:57;23.50;17.30
47576;DHT22;33304;52.456;13.328;2023-06-19T09:13:24;23.40;17.20
47576;DHT22;33304;52.456;13.328;2023-06-19T09:15:58;23.30;18.50
47576;DHT22;33304;52.456;13.328;2023-06-19T09:18:26;23.40;18.50
47576;DHT22;33304;52.456;13.328;2023-06-19T09:20:54;23.50;18.40
47576;DHT22;33304;52.456;13.328;2023-06-19T09:23:21;23.70;17.50
47576;DHT22;33304;52.456;13.328;2023-06-19T09:25:53;24.00;16.80
47576;DHT22;33304;52.456;13.328;2023-06-19T09:28:22;23.80;17.10
47576;DHT22;33304;52.456;13.328;2023-06-19T09:30:54;23.50;17.10
47576;DHT22;33304;52.456;13.328;2023-06-19T09:33:21;23.60;16.50
47576;DHT22;33304;52.456;13.328;2023-06-19T09:35:50;23.60;16.10
47576;DHT22;33304;52.456;13.328;2023-06-19T09:38:21;23.50;16.60
47576;DHT22;33304;52.456;13.328;2023-06-19T09:40:48;23.50;15.90
47576;DHT22;33304;52.456;13.328;2023-06-19T09:43:19;23.50;17.30
47576;DHT22;33304;52.456;13.328;2023-06-19T09:45:48;23.70;15.70
47576;DHT22;33304;52.456;13.328;2023-06-19T09:48:19;23.70;15.00
47576;DHT22;33304;52.456;13.328;2023-06-19T09:50:55;23.50;16.10
47576;DHT22;33304;52.456;13.328;2023-06-19T09:53:28;23.50;16.70
47576;DHT22;33304;52.456;13.328;2023-06-19T09:55:56;23.80;16.70
47576;DHT22;33304;52.456;13.328;2023-06-19T09:58:24;23.80;15.70
47576;DHT22;33304;52.456;13.328;2023-06-19T10:00:53;23.80;16.20
47576;DHT22;33304;52.456;13.328;2023-06-19T10:03:21;23.90;15.10
47576;DHT22;33304;52.456;13.328;2023-06-19T10:05:57;24.10;14.80
47576;DHT22;33304;52.456;13.328;2023-06-19T10:08:31;24.30;14.70
47576;DHT22;33304;52.456;13.328;2023-06-19T10:10:59;24.40;14.80
47576;DHT22;33304;52.456;13.328;2023-06-19T10:13:33;24.20;14.50
47576;DHT22;33304;52.456;13.328;2023-06-19T10:16:01;24.30;14.10
47576;DHT22;33304;52.456;13.328;2023-06-19T10:18:28;24.40;14.10
47576;DHT22;33304;52.456;13.328;2023-06-19T10:20:55;24.50;13.70
47576;DHT22;33304;52.456;13.328;2023-06-19T10:23:25;24.50;13.80
47576;DHT22;33304;52.456;13.328;2023-06-19T10:26:00;24.70;14.10
47576;DHT22;33304;52.456;13.328;2023-06-19T10:28:28;24.70;14.70
47576;DHT22;33304;52.456;13.328;2023-06-19T10:30:56;24.70;12.90
47576;DHT22;33304;52.456;13.328;2023-06-19T10:33:25;24.80;12.70
47576;DHT22;33304;52.456;13.328;2023-06-19T10:35:53;24.70;13.30
47576;DHT22;33304;52.456;13.328;2023-06-19T10:38:21;24.90;13.60
47576;DHT22;33304;52.456;13.328;2023-06-19T10:40:48;25.20;13.80
47576;DHT22;33304;52.456;13.328;2023-06-19T10:43:21;25.30;13.00
47576;DHT22;33304;52.456;13.328;2023-06-19T10:45:51;25.60;12.60
47576;DHT22;33304;52.456;13.328;2023-06-19T10:48:20;25.40;11.60
47576;DHT22;33304;52.456;13.328;2023-06-19T10:50:48;25.50;12.00
47576;DHT22;33304;52.456;13.328;2023-06-19T10:53:24;25.60;13.20
47576;DHT22;33304;52.456;13.328;2023-06-19T10:55:55;25.80;11.80
47576;DHT22;33304;52.456;13.328;2023-06-19T10:58:24;25.60;10.00
47576;DHT22;33304;52.456;13.328;2023-06-19T11:00:51;25.40;10.60
47576;DHT22;33304;52.456;13.328;2023-06-19T11:03:18;25.30;10.70
47576;DHT22;33304;52.456;13.328;2023-06-19T11:05:47;25.30;10.00
47576;DHT22;33304;52.456;13.328;2023-06-19T11:08:17;25.30;11.10
47576;DHT22;33304;52.456;13.328;2023-06-19T11:10:45;25.20;11.40
47576;DHT22;33304;52.456;13.328;2023-06-19T11:13:14;24.90;12.80
47576;DHT22;33304;52.456;13.328;2023-06-19T11:15:43;24.90;11.80
47576;DHT22;33304;52.456;13.328;2023-06-19T11:18:11;25.00;10.90
47576;DHT22;33304;52.456;13.328;2023-06-19T11:20:45;25.00;10.60
47576;DHT22;33304;52.456;13.328;2023-06-19T11:23:13;25.00;10.20
47576;DHT22;33304;52.456;13.328;2023-06-19T11:25:41;24.90;10.80
47576;DHT22;33304;52.456;13.328;2023-06-19T11:28:13;25.00;11.30
47576;DHT22;33304;52.456;13.328;2023-06-19T11:30:40;24.90;11.10
47576;DHT22;33304;52.456;13.328;2023-06-19T11:33:17;24.90;11.30
47576;DHT22;33304;52.456;13.328;2023-06-19T11:35:48;25.20;11.00
47576;DHT22;33304;52.456;13.328;2023-06-19T11:38:17;25.20;11.30
47576;DHT22;33304;52.456;13.328;2023-06-19T11:40:45;25.40;10.90
47576;DHT22;33304;52.456;13.328;2023-06-19T11:43:23;25.60;11.80
47576;DHT22;33304;52.456;13.328;2023-06-19T11:45:51;25.60;10.30
47576;DHT22;33304;52.456;13.328;2023-06-19T11:48:23;25.90;10.40
47576;DHT22;33304;52.456;13.328;2023-06-19T11:50:51;26.10;10.00
47576;DHT22;33304;52.456;13.328;2023-06-19T11:53:18;26.40;9.50
47576;DHT22;33304;52.456;13.328;2023-06-19T11:55:45;26.30;10.20
47576;DHT22;33304;52.456;13.328;2023-06-19T11:58:13;26.20;8.90
47576;DHT22;33304;52.456;13.328;2023-06-19T12:00:41;26.30;8.40
47576;DHT22;33304;52.456;13.328;2023-06-19T12:03:09;26.00;8.20
47576;DHT22;33304;52.456;13.328;2023-06-19T12:05:37;25.80;8.50
47576;DHT22;33304;52.456;13.328;2023-06-19T12:08:05;26.30;9.10
47576;DHT22;33304;52.456;13.328;2023-06-19T12:10:34;26.70;6.10
47576;DHT22;33304;52.456;13.328;2023-06-19T12:13:01;26.50;6.40
47576;DHT22;33304;52.456;13.328;2023-06-19T12:15:28;26.40;6.30
47576;DHT22;33304;52.456;13.328;2023-06-19T12:17:55;26.20;7.20
47576;DHT22;33304;52.456;13.328;2023-06-19T12:20:23;26.60;6.10
47576;DHT22;33304;52.456;13.328;2023-06-19T12:22:52;26.80;5.60
47576;DHT22;33304;52.456;13.328;2023-06-19T12:25:19;27.30;5.70
47576;DHT22;33304;52.456;13.328;2023-06-19T12:27:47;27.80;5.90
47576;DHT22;33304;52.456;13.328;2023-06-19T12:30:17;28.20;4.10
47576;DHT22;33304;52.456;13.328;2023-06-19T12:32:44;28.00;4.00
47576;DHT22;33304;52.456;13.328;2023-06-19T12:35:14;28.30;4.20
47576;DHT22;33304;52.456;13.328;2023-06-19T12:37:41;28.60;3.40
47576;DHT22;33304;52.456;13.328;2023-06-19T12:40:11;29.00;3.10
47576;DHT22;33304;52.456;13.328;2023-06-19T12:42:38;29.00;1.80
47576;DHT22;33304;52.456;13.328;2023-06-19T12:45:06;28.00;1.20
47576;DHT22;33304;52.456;13.328;2023-06-19T12:47:33;28.60;1.00
47576;DHT22;33304;52.456;13.328;2023-06-19T12:50:00;28.50;1.10
47576;DHT22;33304;52.456;13.328;2023-06-19T12:52:27;29.20;1.00
47576;DHT22;33304;52.456;13.328;2023-06-19T12:54:54;30.00;1.00
47576;DHT22;33304;52.456;13.328;2023-06-19T12:57:24;30.20;1.00
47576;DHT22;33304;52.456;13.328;2023-06-19T12:59:51;30.60;1.00
47576;DHT22;33304;52.456;13.328;2023-06-19T13:02:18;30.80;1.00
47576;DHT22;33304;52.456;13.328;2023-06-19T13:04:45;30.90;1.00
47576;DHT22;33304;52.456;13.328;2023-06-19T13:07:12;31.00;1.00
47576;DHT22;33304;52.456;13.328;2023-06-19T13:09:39;31.90;1.00
47576;DHT22;33304;52.456;13.328;2023-06-19T13:12:06;32.20;1.00
47576;DHT22;33304;52.456;13.328;2023-06-19T13:14:35;32.00;1.00
47576;DHT22;33304;52.456;13.328;2023-06-19T13:17:03;32.40;1.00
47576;DHT22;33304;52.456;13.328;2023-06-19T13:19:30;32.20;1.00
47576;DHT22;33304;52.456;13.328;2023-06-19T13:21:57;32.10;1.00
47576;DHT22;33304;52.456;13.328;2023-06-19T13:24:24;31.90;1.00
47576;DHT22;33304;52.456;13.328;2023-06-19T13:26:53;31.80;1.00
47576;DHT22;33304;52.456;13.328;2023-06-19T13:29:20;31.50;1.00
47576;DHT22;33304;52.456;13.328;2023-06-19T13:31:48;31.70;1.00
47576;DHT22;33304;52.456;13.328;2023-06-19T13:34:15;31.60;1.00
47576;DHT22;33304;52.456;13.328;2023-06-19T13:36:44;31.70;1.00
47576;DHT22;33304;52.456;13.328;2023-06-19T13:39:12;32.30;1.00
47576;DHT22;33304;52.456;13.328;2023-06-19T13:41:39;32.40;1.00
47576;DHT22;33304;52.456;13.328;2023-06-19T13:44:06;32.50;1.00
47576;DHT22;33304;52.456;13.328;2023-06-19T13:46:33;33.20;1.00
47576;DHT22;33304;52.456;13.328;2023-06-19T13:49:01;33.40;1.00
47576;DHT22;33304;52.456;13.328;2023-06-19T13:51:29;33.20;1.00
47576;DHT22;33304;52.456;13.328;2023-06-19T13:53:56;33.00;1.00
47576;DHT22;33304;52.456;13.328;2023-06-19T13:56:23;32.50;1.00
47576;DHT22;33304;52.456;13.328;2023-06-19T13:58:50;32.00;1.00
47576;DHT22;33304;52.456;13.328;2023-06-19T14:01:17;32.10;1.00
47576;DHT22;33304;52.456;13.328;2023-06-19T14:03:44;31.80;1.00
47576;DHT22;33304;52.456;13.328;2023-06-19T14:06:12;31.60;1.00
47576;DHT22;33304;52.456;13.328;2023-06-19T14:08:40;32.10;1.00
47576;DHT22;33304;52.456;13.328;2023-06-19T14:11:07;32.20;1.00
47576;DHT22;33304;52.456;13.328;2023-06-19T14:13:34;31.60;1.00
47576;DHT22;33304;52.456;13.328;2023-06-19T14:16:01;31.20;1.00
47576;DHT22;33304;52.456;13.328;2023-06-19T14:18:28;30.60;1.00
47576;DHT22;33304;52.456;13.328;2023-06-19T14:20:55;31.20;1.00
47576;DHT22;33304;52.456;13.328;2023-06-19T14:23:24;32.00;1.00
47576;DHT22;33304;52.456;13.328;2023-06-19T14:25:51;31.80;1.00
47576;DHT22;33304;52.456;13.328;2023-06-19T14:28:18;31.70;1.00
47576;DHT22;33304;52.456;13.328;2023-06-19T14:30:45;30.80;1.00
47576;DHT22;33304;52.456;13.328;2023-06-19T14:33:12;30.90;1.00
47576;DHT22;33304;52.456;13.328;2023-06-19T14:35:41;29.90;1.00
47576;DHT22;33304;52.456;13.328;2023-06-19T14:38:10;30.20;1.00
47576;DHT22;33304;52.456;13.328;2023-06-19T14:40:39;30.30;1.00
47576;DHT22;33304;52.456;13.328;2023-06-19T14:43:06;30.60;1.00
47576;DHT22;33304;52.456;13.328;2023-06-19T14:45:34;30.80;1.00
47576;DHT22;33304;52.456;13.328;2023-06-19T14:48:02;31.00;1.00
47576;DHT22;33304;52.456;13.328;2023-06-19T14:50:29;31.80;1.00
47576;DHT22;33304;52.456;13.328;2023-06-19T14:52:56;32.10;1.00
47576;DHT22;33304;52.456;13.328;2023-06-19T14:55:23;32.30;1.00
47576;DHT22;33304;52.456;13.328;2023-06-19T14:57:51;32.40;1.00
47576;DHT22;33304;52.456;13.328;2023-06-19T15:00:18;32.20;1.00
47576;DHT22;33304;52.456;13.328;2023-06-19T15:02:45;31.90;1.00
47576;DHT22;33304;52.456;13.328;2023-06-19T15:05:12;32.40;1.00
47576;DHT22;33304;52.456;13.328;2023-06-19T15:07:39;32.90;1.00
47576;DHT22;33304;52.456;13.328;2023-06-19T15:10:07;33.10;1.00
47576;DHT22;33304;52.456;13.328;2023-06-19T15:12:34;33.40;1.00
47576;DHT22;33304;52.456;13.328;2023-06-19T15:15:03;33.30;1.00
47576;DHT22;33304;52.456;13.328;2023-06-19T15:17:30;33.00;1.00
47576;DHT22;33304;52.456;13.328;2023-06-19T15:19:57;33.50;1.00
47576;DHT22;33304;52.456;13.328;2023-06-19T15:22:24;33.60;1.00
47576;DHT22;33304;52.456;13.328;2023-06-19T15:24:53;32.80;1.00